sensor_id;sensor_type;location;lat;lon;timestamp;pressure;altitude;pressure_sealevel;temperature;humidity
43934;BME280;59081;42.706;23.306;2024-02-21T00:03:41;95741.72;;;3.83;100.00
43934;BME280;59081;42.706;23.306;2024-02-21T00:08:42;95726.22;;;3.91;100.00
43934;BME280;59081;42.706;23.306;2024-02-21T00:13:42;95715.25;;;3.84;100.00
43934;BME280;59081;42.706;23.306;2024-02-21T00:18:44;95768.84;;;3.62;100.00
43934;BME280;59081;42.706;23.306;2024-02-21T00:23:45;95724.28;;;3.37;100.00
43934;BME280;59081;42.706;23.306;2024-02-21T00:28:50;95680.38;;;3.42;100.00
43934;BME280;59081;42.706;23.306;2024-02-21T00:33:51;95748.53;;;4.11;100.00
43934;BME280;59081;42.706;23.306;2024-02-21T00:38:51;95788.84;;;4.49;100.00
43934;BME280;59081;42.706;23.306;2024-02-21T00:43:52;95687.66;;;3.89;100.00
43934;BME280;59081;42.706;23.306;2024-02-21T00:48:52;95607.41;;;3.10;100.00
43934;BME280;59081;42.706;23.306;2024-02-21T00:53:53;95659.56;;;2.72;100.00
43934;BME280;59081;42.706;23.306;2024-02-21T00:58:53;95654.97;;;3.27;100.00
43934;BME280;59081;42.706;23.306;2024-02-21T01:03:54;95531.78;;;2.83;100.00
43934;BME280;59081;42.706;23.306;2024-02-21T01:08:54;95589.28;;;3.36;100.00
43934;BME280;59081;42.706;23.306;2024-02-21T01:13:55;95836.16;;;4.85;100.00
43934;BME280;59081;42.706;23.306;2024-02-21T01:18:56;95657.19;;;3.73;100.00
43934;BME280;59081;42.706;23.306;2024-02-21T01:23:56;95672.94;;;3.39;100.00
43934;BME280;59081;42.706;23.306;2024-02-21T01:28:57;95570.94;;;2.23;100.00
43934;BME280;59081;42.706;23.306;2024-02-21T01:33:57;95705.53;;;3.79;100.00
43934;BME280;59081;42.706;23.306;2024-02-21T01:38:58;95657.63;;;3.78;100.00
43934;BME280;59081;42.706;23.306;2024-02-21T01:44:01;95685.00;;;4.07;100.00
43934;BME280;59081;42.706;23.306;2024-02-21T01:49:01;95616.38;;;3.80;100.00
43934;BME280;59081;42.706;23.306;2024-02-21T01:54:02;95625.34;;;3.19;100.00
43934;BME280;59081;42.706;23.306;2024-02-21T01:59:02;95619.88;;;3.11;100.00
43934;BME280;59081;42.706;23.306;2024-02-21T02:04:03;95663.84;;;3.82;100.00
43934;BME280;59081;42.706;23.306;2024-02-21T02:09:05;95827.66;;;5.08;100.00
43934;BME280;59081;42.706;23.306;2024-02-21T02:14:05;95626.41;;;3.65;100.00
43934;BME280;59081;42.706;23.306;2024-02-21T02:19:06;95644.59;;;2.92;100.00
43934;BME280;59081;42.706;23.306;2024-02-21T02:24:07;95778.31;;;4.48;100.00
43934;BME280;59081;42.706;23.306;2024-02-21T02:29:07;95694.50;;;4.41;100.00
43934;BME280;59081;42.706;23.306;2024-02-21T02:34:08;95602.56;;;2.86;100.00
43934;BME280;59081;42.706;23.306;2024-02-21T02:39:09;95623.81;;;3.21;100.00
43934;BME280;59081;42.706;23.306;2024-02-21T02:44:10;95621.91;;;2.77;100.00
43934;BME280;59081;42.706;23.306;2024-02-21T02:49:10;95761.03;;;4.15;100.00
43934;BME280;59081;42.706;23.306;2024-02-21T02:54:11;95708.06;;;4.24;100.00
43934;BME280;59081;42.706;23.306;2024-02-21T02:59:12;95633.97;;;4.04;100.00
43934;BME280;59081;42.706;23.306;2024-02-21T03:04:12;95676.84;;;3.38;100.00
43934;BME280;59081;42.706;23.306;2024-02-21T03:09:13;95688.03;;;3.88;100.00
43934;BME280;59081;42.706;23.306;2024-02-21T03:14:15;95641.31;;;3.85;100.00
43934;BME280;59081;42.706;23.306;2024-02-21T03:19:16;95755.41;;;4.67;100.00
43934;BME280;59081;42.706;23.306;2024-02-21T03:24:17;95614.16;;;2.76;100.00
43934;BME280;59081;42.706;23.306;2024-02-21T03:29:17;95620.44;;;3.42;100.00
43934;BME280;59081;42.706;23.306;2024-02-21T03:34:18;95650.34;;;4.04;100.00
43934;BME280;59081;42.706;23.306;2024-02-21T03:39:18;95570.78;;;2.50;100.00
43934;BME280;59081;42.706;23.306;2024-02-21T03:44:19;95622.25;;;3.20;100.00
43934;BME280;59081;42.706;23.306;2024-02-21T03:49:19;95625.66;;;2.59;100.00
43934;BME280;59081;42.706;23.306;2024-02-21T03:54:20;95698.41;;;3.61;100.00
43934;BME280;59081;42.706;23.306;2024-02-21T03:59:22;95703.34;;;4.10;100.00
43934;BME280;59081;42.706;23.306;2024-02-21T04:04:22;95764.75;;;4.69;100.00
43934;BME280;59081;42.706;23.306;2024-02-21T04:09:23;95576.03;;;2.72;100.00
43934;BME280;59081;42.706;23.306;2024-02-21T04:14:24;95824.13;;;4.21;100.00
43934;BME280;59081;42.706;23.306;2024-02-21T04:19:24;95628.28;;;3.54;100.00
43934;BME280;59081;42.706;23.306;2024-02-21T04:24:25;95821.47;;;5.18;100.00
43934;BME280;59081;42.706;23.306;2024-02-21T04:29:25;95627.94;;;3.01;100.00
43934;BME280;59081;42.706;23.306;2024-02-21T04:34:28;95711.88;;;3.43;100.00
43934;BME280;59081;42.706;23.306;2024-02-21T04:39:28;95637.19;;;3.44;100.00
43934;BME280;59081;42.706;23.306;2024-02-21T04:44:29;95658.72;;;3.67;100.00
43934;BME280;59081;42.706;23.306;2024-02-21T04:49:29;95550.28;;;2.15;100.00
43934;BME280;59081;42.706;23.306;2024-02-21T04:54:30;95651.09;;;2.80;100.00
43934;BME280;59081;42.706;23.306;2024-02-21T04:59:31;95589.28;;;3.36;100.00
43934;BME280;59081;42.706;23.306;2024-02-21T05:04:31;95723.59;;;3.50;100.00
43934;BME280;59081;42.706;23.306;2024-02-21T05:09:32;95745.50;;;3.17;100.00
43934;BME280;59081;42.706;23.306;2024-02-21T05:14:32;95726.16;;;3.80;100.00
43934;BME280;59081;42.706;23.306;2024-02-21T05:19:36;95672.88;;;3.28;100.00
43934;BME280;59081;42.706;23.306;2024-02-21T05:24:39;95786.13;;;3.36;100.00
43934;BME280;59081;42.706;23.306;2024-02-21T05:29:39;95836.78;;;4.47;100.00
43934;BME280;59081;42.706;23.306;2024-02-21T05:34:40;95628.22;;;3.40;100.00
43934;BME280;59081;42.706;23.306;2024-02-21T05:39:40;95729.59;;;4.43;100.00
43934;BME280;59081;42.706;23.306;2024-02-21T05:44:41;95663.69;;;4.27;100.00
43934;BME280;59081;42.706;23.306;2024-02-21T05:49:41;95662.53;;;4.35;100.00
43934;BME280;59081;42.706;23.306;2024-02-21T05:54:42;95633.31;;;3.45;100.00
43934;BME280;59081;42.706;23.306;2024-02-21T05:59:43;95671.56;;;2.67;100.00
43934;BME280;59081;42.706;23.306;2024-02-21T06:04:44;95712.03;;;3.68;100.00
43934;BME280;59081;42.706;23.306;2024-02-21T06:09:46;95679.38;;;3.17;100.00
43934;BME280;59081;42.706;23.306;2024-02-21T06:14:47;95718.03;;;3.33;100.00
43934;BME280;59081;42.706;23.306;2024-02-21T06:19:47;95622.00;;;3.39;100.00
43934;BME280;59081;42.706;23.306;2024-02-21T06:24:48;95724.66;;;3.90;100.00
43934;BME280;59081;42.706;23.306;2024-02-21T06:29:48;95785.75;;;4.54;100.00
43934;BME280;59081;42.706;23.306;2024-02-21T06:34:49;95771.97;;;4.26;100.00
43934;BME280;59081;42.706;23.306;2024-02-21T06:39:49;95774.53;;;4.77;99.51
43934;BME280;59081;42.706;23.306;2024-02-21T06:44:50;95749.75;;;4.24;100.00
43934;BME280;59081;42.706;23.306;2024-02-21T06:49:50;95662.50;;;4.28;97.23
43934;BME280;59081;42.706;23.306;2024-02-21T06:54:51;95756.31;;;5.45;94.22
43934;BME280;59081;42.706;23.306;2024-02-21T06:59:52;95704.78;;;4.94;91.44
43934;BME280;59081;42.706;23.306;2024-02-21T07:04:52;95703.03;;;4.36;96.44
43934;BME280;59081;42.706;23.306;2024-02-21T07:09:53;95762.59;;;5.53;93.84
43934;BME280;59081;42.706;23.306;2024-02-21T07:14:55;95777.00;;;6.07;91.51
43934;BME280;59081;42.706;23.306;2024-02-21T07:19:55;95710.13;;;4.51;94.87
43934;BME280;59081;42.706;23.306;2024-02-21T07:24:57;95719.25;;;5.16;92.58
43934;BME280;59081;42.706;23.306;2024-02-21T07:29:57;95744.22;;;5.57;91.38
43934;BME280;59081;42.706;23.306;2024-02-21T07:34:58;95783.59;;;5.20;95.02
43934;BME280;59081;42.706;23.306;2024-02-21T07:39:58;95771.91;;;5.38;95.87
43934;BME280;59081;42.706;23.306;2024-02-21T07:44:59;95834.44;;;6.32;92.87
43934;BME280;59081;42.706;23.306;2024-02-21T07:49:59;95757.84;;;5.21;93.69
43934;BME280;59081;42.706;23.306;2024-02-21T07:55:00;95764.91;;;5.30;96.41
43934;BME280;59081;42.706;23.306;2024-02-21T08:00:00;95856.63;;;6.62;92.72
43934;BME280;59081;42.706;23.306;2024-02-21T08:05:01;95850.56;;;7.24;89.70
43934;BME280;59081;42.706;23.306;2024-02-21T08:10:02;95816.88;;;6.01;93.64
43934;BME280;59081;42.706;23.306;2024-02-21T08:15:03;95800.78;;;6.45;91.19
43934;BME280;59081;42.706;23.306;2024-02-21T08:20:05;95857.94;;;7.38;88.45
43934;BME280;59081;42.706;23.306;2024-02-21T08:25:07;95724.75;;;6.81;85.87
43934;BME280;59081;42.706;23.306;2024-02-21T08:30:08;95841.88;;;7.32;86.02
43934;BME280;59081;42.706;23.306;2024-02-21T08:35:09;95810.56;;;7.37;84.52
43934;BME280;59081;42.706;23.306;2024-02-21T08:40:10;95901.41;;;8.53;82.16
43934;BME280;59081;42.706;23.306;2024-02-21T08:45:10;95798.66;;;8.10;80.04
43934;BME280;59081;42.706;23.306;2024-02-21T08:50:11;95801.88;;;7.97;80.21
43934;BME280;59081;42.706;23.306;2024-02-21T08:55:11;95827.16;;;7.75;80.40
43934;BME280;59081;42.706;23.306;2024-02-21T09:00:12;95727.56;;;7.37;79.67
43934;BME280;59081;42.706;23.306;2024-02-21T09:05:13;95705.50;;;6.95;80.78
43934;BME280;59081;42.706;23.306;2024-02-21T09:10:14;95764.06;;;7.75;77.29
43934;BME280;59081;42.706;23.306;2024-02-21T09:15:15;95734.63;;;7.34;78.21
43934;BME280;59081;42.706;23.306;2024-02-21T09:20:16;95917.66;;;8.33;79.15
43934;BME280;59081;42.706;23.306;2024-02-21T09:25:17;95760.63;;;7.08;79.11
43934;BME280;59081;42.706;23.306;2024-02-21T09:30:18;95878.38;;;7.88;79.00
43934;BME280;59081;42.706;23.306;2024-02-21T09:35:19;95722.63;;;7.10;78.25
43934;BME280;59081;42.706;23.306;2024-02-21T09:40:20;95899.53;;;8.43;78.10
43934;BME280;59081;42.706;23.306;2024-02-21T09:45:23;95726.47;;;7.23;77.99
43934;BME280;59081;42.706;23.306;2024-02-21T09:50:23;95912.31;;;9.01;75.90
43934;BME280;59081;42.706;23.306;2024-02-21T09:55:26;95824.47;;;8.60;74.64
43934;BME280;59081;42.706;23.306;2024-02-21T10:00:27;95793.69;;;8.76;74.79
43934;BME280;59081;42.706;23.306;2024-02-21T10:05:28;95794.28;;;9.52;67.58
43934;BME280;59081;42.706;23.306;2024-02-21T10:10:29;95907.69;;;11.10;63.17
43934;BME280;59081;42.706;23.306;2024-02-21T10:15:30;95804.28;;;10.39;64.00
43934;BME280;59081;42.706;23.306;2024-02-21T10:20:30;95881.06;;;11.79;60.61
43934;BME280;59081;42.706;23.306;2024-02-21T10:25:31;95699.41;;;10.69;57.15
43934;BME280;59081;42.706;23.306;2024-02-21T10:30:31;95712.84;;;11.39;55.37
43934;BME280;59081;42.706;23.306;2024-02-21T10:35:32;95789.41;;;12.65;53.36
43934;BME280;59081;42.706;23.306;2024-02-21T10:40:33;95666.06;;;12.84;50.42
43934;BME280;59081;42.706;23.306;2024-02-21T10:45:35;95836.63;;;14.34;51.12
43934;BME280;59081;42.706;23.306;2024-02-21T10:51:03;95818.47;;;14.20;48.15
43934;BME280;59081;42.706;23.306;2024-02-21T10:56:26;95651.31;;;13.16;46.45
43934;BME280;59081;42.706;23.306;2024-02-21T11:01:29;95668.25;;;13.31;46.12
43934;BME280;59081;42.706;23.306;2024-02-21T11:06:33;95694.34;;;12.34;48.38
43934;BME280;59081;42.706;23.306;2024-02-21T11:11:37;95788.13;;;13.91;45.26
43934;BME280;59081;42.706;23.306;2024-02-21T11:16:40;95715.66;;;13.04;43.52
43934;BME280;59081;42.706;23.306;2024-02-21T11:21:41;95588.75;;;12.13;43.54
43934;BME280;59081;42.706;23.306;2024-02-21T11:26:41;95653.94;;;12.94;43.71
43934;BME280;59081;42.706;23.306;2024-02-21T11:31:44;95755.56;;;13.70;44.11
43934;BME280;59081;42.706;23.306;2024-02-21T11:36:50;95613.78;;;12.77;55.38
43934;BME280;59081;42.706;23.306;2024-02-21T11:42:05;95705.72;;;11.74;48.04
43934;BME280;59081;42.706;23.306;2024-02-21T11:47:07;95696.03;;;11.50;53.53
43934;BME280;59081;42.706;23.306;2024-02-21T11:52:07;95659.69;;;10.87;49.02
43934;BME280;59081;42.706;23.306;2024-02-21T11:57:08;95756.75;;;11.14;50.47
43934;BME280;59081;42.706;23.306;2024-02-21T12:02:09;95638.19;;;10.02;51.68
43934;BME280;59081;42.706;23.306;2024-02-21T12:07:10;95742.22;;;10.34;53.46
43934;BME280;59081;42.706;23.306;2024-02-21T12:12:11;95588.25;;;9.14;54.47
43934;BME280;59081;42.706;23.306;2024-02-21T12:17:12;95754.06;;;10.31;54.41
43934;BME280;59081;42.706;23.306;2024-02-21T12:22:19;95752.22;;;10.25;53.74
43934;BME280;59081;42.706;23.306;2024-02-21T12:27:19;95605.63;;;9.07;54.60
43934;BME280;59081;42.706;23.306;2024-02-21T12:32:20;95608.00;;;9.05;54.77
43934;BME280;59081;42.706;23.306;2024-02-21T12:37:22;95563.03;;;8.96;54.73
43934;BME280;59081;42.706;23.306;2024-02-21T12:42:25;95475.69;;;8.37;56.23
43934;BME280;59081;42.706;23.306;2024-02-21T12:47:26;95639.66;;;9.17;59.50
43934;BME280;59081;42.706;23.306;2024-02-21T12:52:29;95732.31;;;9.43;63.90
43934;BME280;59081;42.706;23.306;2024-02-21T12:57:33;95574.94;;;8.32;65.02
43934;BME280;59081;42.706;23.306;2024-02-21T13:02:33;95520.94;;;7.95;65.67
43934;BME280;59081;42.706;23.306;2024-02-21T13:07:34;95712.50;;;9.29;63.93
43934;BME280;59081;42.706;23.306;2024-02-21T13:12:34;95690.78;;;9.11;65.25
43934;BME280;59081;42.706;23.306;2024-02-21T13:17:35;95596.84;;;8.93;66.02
43934;BME280;59081;42.706;23.306;2024-02-21T13:22:35;95576.78;;;8.96;62.93
43934;BME280;59081;42.706;23.306;2024-02-21T13:27:39;95595.97;;;8.99;62.15
43934;BME280;59081;42.706;23.306;2024-02-21T13:32:39;95537.03;;;8.50;61.84
43934;BME280;59081;42.706;23.306;2024-02-21T13:37:41;95532.59;;;8.33;62.25
43934;BME280;59081;42.706;23.306;2024-02-21T13:42:44;95616.78;;;8.97;63.42
43934;BME280;59081;42.706;23.306;2024-02-21T13:47:47;95525.00;;;8.14;63.23
43934;BME280;59081;42.706;23.306;2024-02-21T13:52:48;95706.94;;;9.05;66.27
43934;BME280;59081;42.706;23.306;2024-02-21T13:57:49;95588.28;;;8.60;65.88
43934;BME280;59081;42.706;23.306;2024-02-21T14:02:49;95564.06;;;8.25;66.80
43934;BME280;59081;42.706;23.306;2024-02-21T14:07:50;95577.94;;;8.71;65.68
43934;BME280;59081;42.706;23.306;2024-02-21T14:12:50;95530.00;;;8.49;66.10
43934;BME280;59081;42.706;23.306;2024-02-21T14:17:51;95534.44;;;8.13;66.65
43934;BME280;59081;42.706;23.306;2024-02-21T14:22:51;95502.34;;;7.79;65.86
43934;BME280;59081;42.706;23.306;2024-02-21T14:27:52;95613.69;;;8.37;66.85
43934;BME280;59081;42.706;23.306;2024-02-21T14:32:53;95615.66;;;8.37;67.50
43934;BME280;59081;42.706;23.306;2024-02-21T14:37:53;95477.00;;;7.34;69.44
43934;BME280;59081;42.706;23.306;2024-02-21T14:42:57;95426.81;;;6.69;71.67
43934;BME280;59081;42.706;23.306;2024-02-21T14:47:57;95544.78;;;7.30;72.49
43934;BME280;59081;42.706;23.306;2024-02-21T14:52:58;95518.28;;;7.16;71.99
43934;BME280;59081;42.706;23.306;2024-02-21T14:57:59;95660.84;;;7.95;73.37
43934;BME280;59081;42.706;23.306;2024-02-21T15:03:00;95554.34;;;7.11;74.26
43934;BME280;59081;42.706;23.306;2024-02-21T15:08:01;95570.59;;;7.32;72.35
43934;BME280;59081;42.706;23.306;2024-02-21T15:13:02;95528.84;;;7.18;71.79
43934;BME280;59081;42.706;23.306;2024-02-21T15:18:03;95569.78;;;7.36;72.57
43934;BME280;59081;42.706;23.306;2024-02-21T15:23:04;95540.81;;;6.93;73.85
43934;BME280;59081;42.706;23.306;2024-02-21T15:28:05;95468.81;;;6.52;74.88
43934;BME280;59081;42.706;23.306;2024-02-21T15:33:06;95462.56;;;6.51;75.19
43934;BME280;59081;42.706;23.306;2024-02-21T15:38:06;95611.00;;;7.62;75.99
43934;BME280;59081;42.706;23.306;2024-02-21T15:43:07;95523.03;;;7.12;77.63
43934;BME280;59081;42.706;23.306;2024-02-21T15:48:08;95535.84;;;7.26;76.54
43934;BME280;59081;42.706;23.306;2024-02-21T15:53:09;95596.78;;;7.37;75.91
43934;BME280;59081;42.706;23.306;2024-02-21T15:58:11;95481.59;;;6.66;74.72
43934;BME280;59081;42.706;23.306;2024-02-21T16:03:11;95696.78;;;8.04;75.20
43934;BME280;59081;42.706;23.306;2024-02-21T16:08:13;95438.19;;;6.23;74.94
43934;BME280;59081;42.706;23.306;2024-02-21T16:13:13;95604.56;;;7.42;74.88
43934;BME280;59081;42.706;23.306;2024-02-21T16:18:14;95576.47;;;6.90;75.41
43934;BME280;59081;42.706;23.306;2024-02-21T16:23:20;95599.09;;;6.94;76.18
43934;BME280;59081;42.706;23.306;2024-02-21T16:28:20;95592.41;;;6.98;75.84
43934;BME280;59081;42.706;23.306;2024-02-21T16:33:21;95721.16;;;7.54;77.17
43934;BME280;59081;42.706;23.306;2024-02-21T16:38:21;95624.56;;;6.91;76.51
43934;BME280;59081;42.706;23.306;2024-02-21T16:43:22;95508.66;;;5.98;77.72
43934;BME280;59081;42.706;23.306;2024-02-21T16:48:23;95581.84;;;6.45;78.31
43934;BME280;59081;42.706;23.306;2024-02-21T16:53:23;95656.78;;;6.73;79.56
43934;BME280;59081;42.706;23.306;2024-02-21T16:58:28;95621.34;;;6.44;79.93
43934;BME280;59081;42.706;23.306;2024-02-21T17:03:33;95574.25;;;6.05;80.48
43934;BME280;59081;42.706;23.306;2024-02-21T17:08:34;95561.81;;;5.82;81.59
43934;BME280;59081;42.706;23.306;2024-02-21T17:13:34;95603.97;;;6.03;83.10
43934;BME280;59081;42.706;23.306;2024-02-21T17:18:35;95563.44;;;5.69;84.48
43934;BME280;59081;42.706;23.306;2024-02-21T17:23:35;95604.78;;;5.85;85.53
43934;BME280;59081;42.706;23.306;2024-02-21T17:28:36;95724.91;;;6.53;87.37
43934;BME280;59081;42.706;23.306;2024-02-21T17:33:37;95583.75;;;5.68;87.86
43934;BME280;59081;42.706;23.306;2024-02-21T17:38:40;95751.88;;;6.54;89.30
43934;BME280;59081;42.706;23.306;2024-02-21T17:43:41;95699.25;;;6.18;88.73
43934;BME280;59081;42.706;23.306;2024-02-21T17:48:42;95658.75;;;5.46;89.21
43934;BME280;59081;42.706;23.306;2024-02-21T17:53:42;95610.38;;;4.93;90.45
43934;BME280;59081;42.706;23.306;2024-02-21T17:58:43;95611.94;;;4.66;92.01
43934;BME280;59081;42.706;23.306;2024-02-21T18:03:44;95645.06;;;4.64;94.85
43934;BME280;59081;42.706;23.306;2024-02-21T18:14:04;95623.53;;;4.20;99.47
43934;BME280;59081;42.706;23.306;2024-02-21T18:19:07;95670.72;;;4.42;100.00
43934;BME280;59081;42.706;23.306;2024-02-21T18:24:07;95627.00;;;4.17;100.00
43934;BME280;59081;42.706;23.306;2024-02-21T18:29:08;95707.47;;;4.76;100.00
43934;BME280;59081;42.706;23.306;2024-02-21T18:34:12;95690.66;;;4.57;100.00
43934;BME280;59081;42.706;23.306;2024-02-21T18:39:14;95602.03;;;3.94;100.00
43934;BME280;59081;42.706;23.306;2024-02-21T18:44:14;95577.00;;;3.70;100.00
43934;BME280;59081;42.706;23.306;2024-02-21T18:49:15;95626.09;;;3.84;100.00
43934;BME280;59081;42.706;23.306;2024-02-21T18:54:18;95721.03;;;4.48;100.00
43934;BME280;59081;42.706;23.306;2024-02-21T18:59:18;95688.31;;;4.48;100.00
43934;BME280;59081;42.706;23.306;2024-02-21T19:04:19;95684.41;;;4.52;100.00
43934;BME280;59081;42.706;23.306;2024-02-21T19:09:20;95620.88;;;5.41;100.00
43934;BME280;59081;42.706;23.306;2024-02-21T19:14:21;95629.16;;;6.42;92.75
43934;BME280;59081;42.706;23.306;2024-02-21T19:19:22;95797.41;;;4.44;100.00
43934;BME280;59081;42.706;23.306;2024-02-21T19:24:23;95598.34;;;2.96;100.00
43934;BME280;59081;42.706;23.306;2024-02-21T19:29:24;95733.06;;;3.67;100.00
43934;BME280;59081;42.706;23.306;2024-02-21T19:34:26;95606.00;;;2.79;100.00
43934;BME280;59081;42.706;23.306;2024-02-21T19:39:28;95728.25;;;3.50;100.00
43934;BME280;59081;42.706;23.306;2024-02-21T19:44:29;95812.81;;;4.12;100.00
43934;BME280;59081;42.706;23.306;2024-02-21T19:49:30;95670.75;;;3.59;100.00
43934;BME280;59081;42.706;23.306;2024-02-21T19:54:33;95670.41;;;3.67;100.00
43934;BME280;59081;42.706;23.306;2024-02-21T19:59:33;95627.28;;;3.18;100.00
43934;BME280;59081;42.706;23.306;2024-02-21T20:04:36;95758.06;;;4.49;100.00
43934;BME280;59081;42.706;23.306;2024-02-21T20:09:40;95537.81;;;2.55;100.00
43934;BME280;59081;42.706;23.306;2024-02-21T20:14:41;95716.00;;;3.77;100.00
43934;BME280;59081;42.706;23.306;2024-02-21T20:19:41;95646.22;;;3.55;100.00
43934;BME280;59081;42.706;23.306;2024-02-21T20:24:42;95636.59;;;3.13;100.00
43934;BME280;59081;42.706;23.306;2024-02-21T20:29:43;95716.84;;;3.89;100.00
43934;BME280;59081;42.706;23.306;2024-02-21T20:34:43;95615.97;;;3.09;100.00
43934;BME280;59081;42.706;23.306;2024-02-21T20:39:44;95550.34;;;3.32;100.00
43934;BME280;59081;42.706;23.306;2024-02-21T20:44:44;95691.00;;;4.44;100.00
43934;BME280;59081;42.706;23.306;2024-02-21T20:49:45;95674.22;;;4.35;100.00
43934;BME280;59081;42.706;23.306;2024-02-21T20:54:46;95583.22;;;3.67;100.00
43934;BME280;59081;42.706;23.306;2024-02-21T20:59:46;95587.44;;;3.54;100.00
43934;BME280;59081;42.706;23.306;2024-02-21T21:04:47;95529.09;;;3.59;100.00
43934;BME280;59081;42.706;23.306;2024-02-21T21:09:47;95590.00;;;4.16;100.00
43934;BME280;59081;42.706;23.306;2024-02-21T21:14:48;95770.38;;;5.44;100.00
43934;BME280;59081;42.706;23.306;2024-02-21T21:19:48;95632.97;;;4.62;100.00
43934;BME280;59081;42.706;23.306;2024-02-21T21:24:50;95576.78;;;4.22;100.00
43934;BME280;59081;42.706;23.306;2024-02-21T21:29:52;95651.72;;;4.88;100.00
43934;BME280;59081;42.706;23.306;2024-02-21T21:34:53;95643.13;;;4.79;100.00
43934;BME280;59081;42.706;23.306;2024-02-21T21:39:53;95770.38;;;5.62;99.54
43934;BME280;59081;42.706;23.306;2024-02-21T21:44:58;95707.91;;;5.14;97.72
43934;BME280;59081;42.706;23.306;2024-02-21T21:49:59;95590.81;;;4.27;97.17
43934;BME280;59081;42.706;23.306;2024-02-21T21:54:59;95622.03;;;4.40;97.04
43934;BME280;59081;42.706;23.306;2024-02-21T22:00:00;95651.69;;;4.60;97.04
43934;BME280;59081;42.706;23.306;2024-02-21T22:05:01;95583.00;;;4.18;97.54
43934;BME280;59081;42.706;23.306;2024-02-21T22:10:01;95521.72;;;3.70;96.45
43934;BME280;59081;42.706;23.306;2024-02-21T22:15:02;95597.75;;;4.00;96.84
43934;BME280;59081;42.706;23.306;2024-02-21T22:20:05;95775.81;;;5.19;97.99
43934;BME280;59081;42.706;23.306;2024-02-21T22:25:06;95775.78;;;5.08;99.31
43934;BME280;59081;42.706;23.306;2024-02-21T22:30:07;95767.22;;;5.24;98.53
43934;BME280;59081;42.706;23.306;2024-02-21T22:35:09;95724.59;;;4.70;99.66
43934;BME280;59081;42.706;23.306;2024-02-21T22:40:10;95520.50;;;3.53;98.38
43934;BME280;59081;42.706;23.306;2024-02-21T22:45:10;95666.47;;;4.51;98.17
43934;BME280;59081;42.706;23.306;2024-02-21T22:50:11;95630.56;;;4.28;98.51
43934;BME280;59081;42.706;23.306;2024-02-21T22:55:12;95591.97;;;4.12;98.44
43934;BME280;59081;42.706;23.306;2024-02-21T23:00:13;95698.88;;;4.67;98.24
43934;BME280;59081;42.706;23.306;2024-02-21T23:05:15;95752.19;;;4.43;100.00
43934;BME280;59081;42.706;23.306;2024-02-21T23:10:16;95551.53;;;3.31;100.00
43934;BME280;59081;42.706;23.306;2024-02-21T23:15:19;95546.06;;;3.24;100.00
43934;BME280;59081;42.706;23.306;2024-02-21T23:20:19;95760.00;;;4.48;100.00
43934;BME280;59081;42.706;23.306;2024-02-21T23:25:20;95640.03;;;3.65;100.00
43934;BME280;59081;42.706;23.306;2024-02-21T23:30:21;95764.97;;;4.25;100.00
43934;BME280;59081;42.706;23.306;2024-02-21T23:35:23;95678.50;;;3.57;100.00
43934;BME280;59081;42.706;23.306;2024-02-21T23:40:24;95570.44;;;2.55;100.00
43934;BME280;59081;42.706;23.306;2024-02-21T23:45:24;95621.91;;;2.74;100.00
43934;BME280;59081;42.706;23.306;2024-02-21T23:50:25;95730.53;;;3.41;100.00
43934;BME280;59081;42.706;23.306;2024-02-21T23:55:26;95506.09;;;2.22;100.00
